Aviation Digital Data Service (ADDS)

Output produced by METARs form (1454 UTC 18 August 2019)
found at http://www.aviationweather.gov/metar/data/
 
Forecast for: OEDF (KING FAHD INTL , SA)
Text: TAF OEDF 180900Z 1812/1918 04013KT 8000 NSC
Forecast period: 1200 to 1800 UTC 18 August 2019
Forecast type: FROM: standard forecast or significant change
Winds: from the NE (40 degrees) at 15 MPH (13 knots; 6.7 m/s)
Visibility: 5 miles (8 km)
Ceiling: unknown
Clouds: missing
Weather: no significant weather forecast for this period
Text: BECMG 1818/1820 VRB03KT
Forecast period: 1800 UTC 18 August 2019 to 0800 UTC 19 August 2019
Forecast type: BECOMING: Conditions expected to become as follows by 2000 UTC 18 August 2019
Winds: variable direction winds at 3 MPH (3 knots; 1.5 m/s)
Visibility: 5 miles (8 km)
Ceiling: unknown
Clouds: missing
Weather: no significant weather forecast for this period
Text: BECMG 1908/1910 07009KT
Forecast period: 0800 to 1800 UTC 19 August 2019
Forecast type: BECOMING: Conditions expected to become as follows by 1000 UTC 19 August 2019
Winds: from the ENE (70 degrees) at 10 MPH (9 knots; 4.6 m/s)
Visibility: 5 miles (8 km)
Ceiling: unknown
Clouds: missing
Weather: no significant weather forecast for this period